sensor_id;sensor_type;location;lat;lon;timestamp;pressure;altitude;pressure_sealevel;temperature;humidity
29383;BME280;16365;51.598;7.668;2022-07-23T00:01:52;101230.31;;;24.12;46.50
29383;BME280;16365;51.598;7.668;2022-07-23T00:04:18;101205.22;;;24.10;46.66
29383;BME280;16365;51.598;7.668;2022-07-23T00:06:45;101196.72;;;24.10;46.71
29383;BME280;16365;51.598;7.668;2022-07-23T00:09:12;101179.34;;;24.08;46.85
29383;BME280;16365;51.598;7.668;2022-07-23T00:11:38;101178.53;;;24.04;47.09
29383;BME280;16365;51.598;7.668;2022-07-23T00:14:05;101169.25;;;24.00;47.22
29383;BME280;16365;51.598;7.668;2022-07-23T00:16:31;101155.88;;;23.97;47.22
29383;BME280;16365;51.598;7.668;2022-07-23T00:18:58;101144.97;;;23.92;47.35
29383;BME280;16365;51.598;7.668;2022-07-23T00:21:28;101143.38;;;23.88;47.42
29383;BME280;16365;51.598;7.668;2022-07-23T00:23:55;101132.09;;;23.80;47.19
29383;BME280;16365;51.598;7.668;2022-07-23T00:26:21;101129.66;;;23.72;47.15
29383;BME280;16365;51.598;7.668;2022-07-23T00:28:48;101126.03;;;23.60;47.57
29383;BME280;16365;51.598;7.668;2022-07-23T00:31:14;101136.97;;;23.51;47.85
29383;BME280;16365;51.598;7.668;2022-07-23T00:33:41;101138.19;;;23.43;47.93
29383;BME280;16365;51.598;7.668;2022-07-23T00:36:08;101156.78;;;23.37;48.55
29383;BME280;16365;51.598;7.668;2022-07-23T00:38:35;101158.41;;;23.31;48.71
29383;BME280;16365;51.598;7.668;2022-07-23T00:41:01;101159.22;;;23.28;48.95
29383;BME280;16365;51.598;7.668;2022-07-23T00:43:28;101156.81;;;23.26;48.69
29383;BME280;16365;51.598;7.668;2022-07-23T00:45:54;101150.31;;;23.22;49.00
29383;BME280;16365;51.598;7.668;2022-07-23T00:48:21;101154.38;;;23.21;49.46
29383;BME280;16365;51.598;7.668;2022-07-23T00:50:48;101160.03;;;23.21;49.44
29383;BME280;16365;51.598;7.668;2022-07-23T00:53:15;101164.84;;;23.21;49.94
29383;BME280;16365;51.598;7.668;2022-07-23T00:55:42;101161.22;;;23.20;49.80
29383;BME280;16365;51.598;7.668;2022-07-23T00:58:09;101155.19;;;23.18;50.00
29383;BME280;16365;51.598;7.668;2022-07-23T01:00:36;101151.53;;;23.18;50.23
29383;BME280;16365;51.598;7.668;2022-07-23T01:03:02;101156.41;;;23.17;50.01
29383;BME280;16365;51.598;7.668;2022-07-23T01:05:29;101156.41;;;23.17;50.14
29383;BME280;16365;51.598;7.668;2022-07-23T01:07:56;101147.91;;;23.17;50.05
29383;BME280;16365;51.598;7.668;2022-07-23T01:10:23;101144.66;;;23.15;50.24
29383;BME280;16365;51.598;7.668;2022-07-23T01:13:00;101148.28;;;23.16;50.20
29383;BME280;16365;51.598;7.668;2022-07-23T01:15:27;101139.00;;;23.15;50.45
29383;BME280;16365;51.598;7.668;2022-07-23T01:17:53;101132.53;;;23.15;50.46
29383;BME280;16365;51.598;7.668;2022-07-23T01:20:21;101132.53;;;23.15;50.60
29383;BME280;16365;51.598;7.668;2022-07-23T01:22:47;101139.00;;;23.15;50.75
29383;BME280;16365;51.598;7.668;2022-07-23T01:25:14;101128.09;;;23.17;50.72
29383;BME280;16365;51.598;7.668;2022-07-23T01:27:41;101119.63;;;23.17;50.42
29383;BME280;16365;51.598;7.668;2022-07-23T01:30:08;101117.59;;;23.18;50.42
29383;BME280;16365;51.598;7.668;2022-07-23T01:32:35;101121.22;;;23.18;50.50
29383;BME280;16365;51.598;7.668;2022-07-23T01:35:02;101120.84;;;23.16;50.33
29383;BME280;16365;51.598;7.668;2022-07-23T01:37:28;101110.72;;;23.15;50.87
29383;BME280;16365;51.598;7.668;2022-07-23T01:39:55;101134.16;;;23.16;50.98
29383;BME280;16365;51.598;7.668;2022-07-23T01:42:22;101139.00;;;23.15;50.96
29383;BME280;16365;51.598;7.668;2022-07-23T01:44:49;101133.75;;;23.14;50.91
29383;BME280;16365;51.598;7.668;2022-07-23T01:47:16;101115.56;;;23.15;51.09
29383;BME280;16365;51.598;7.668;2022-07-23T01:49:43;101117.59;;;23.14;51.03
29383;BME280;16365;51.598;7.668;2022-07-23T01:52:10;101109.91;;;23.15;51.13
29383;BME280;16365;51.598;7.668;2022-07-23T01:54:38;101122.44;;;23.14;51.11
29383;BME280;16365;51.598;7.668;2022-07-23T01:57:05;101127.69;;;23.15;51.38
29383;BME280;16365;51.598;7.668;2022-07-23T01:59:32;101118.78;;;23.20;50.57
29383;BME280;16365;51.598;7.668;2022-07-23T02:01:59;101114.75;;;23.18;50.65
29383;BME280;16365;51.598;7.668;2022-07-23T02:04:26;101107.88;;;23.15;50.89
29383;BME280;16365;51.598;7.668;2022-07-23T02:06:53;101112.72;;;23.15;51.36
29383;BME280;16365;51.598;7.668;2022-07-23T02:09:19;101115.56;;;23.15;51.41
29383;BME280;16365;51.598;7.668;2022-07-23T02:11:47;101115.16;;;23.13;51.43
29383;BME280;16365;51.598;7.668;2022-07-23T02:14:13;101107.50;;;23.13;51.79
29383;BME280;16365;51.598;7.668;2022-07-23T02:16:40;101111.13;;;23.14;51.49
29383;BME280;16365;51.598;7.668;2022-07-23T02:19:07;101101.84;;;23.13;51.56
29383;BME280;16365;51.598;7.668;2022-07-23T02:21:33;101102.25;;;23.12;51.68
29383;BME280;16365;51.598;7.668;2022-07-23T02:24:00;101118.00;;;23.13;51.68
29383;BME280;16365;51.598;7.668;2022-07-23T02:26:26;101115.16;;;23.13;51.75
29383;BME280;16365;51.598;7.668;2022-07-23T02:28:53;101105.06;;;23.12;51.76
29383;BME280;16365;51.598;7.668;2022-07-23T02:31:20;101098.59;;;23.11;51.34
29383;BME280;16365;51.598;7.668;2022-07-23T02:33:47;101094.56;;;23.12;51.66
29383;BME280;16365;51.598;7.668;2022-07-23T02:36:13;101101.41;;;23.11;51.53
29383;BME280;16365;51.598;7.668;2022-07-23T02:38:40;101094.94;;;23.11;51.16
29383;BME280;16365;51.598;7.668;2022-07-23T02:41:06;101109.50;;;23.09;51.37
29383;BME280;16365;51.598;7.668;2022-07-23T02:43:33;101109.13;;;23.07;51.35
29383;BME280;16365;51.598;7.668;2022-07-23T02:45:59;101103.84;;;23.05;51.29
29383;BME280;16365;51.598;7.668;2022-07-23T02:48:27;101109.09;;;23.03;51.67
29383;BME280;16365;51.598;7.668;2022-07-23T02:50:53;101101.84;;;23.02;51.69
29383;BME280;16365;51.598;7.668;2022-07-23T02:53:22;101105.84;;;23.01;51.97
29383;BME280;16365;51.598;7.668;2022-07-23T02:55:49;101105.47;;;23.03;51.28
29383;BME280;16365;51.598;7.668;2022-07-23T02:58:15;101102.63;;;22.99;51.38
29383;BME280;16365;51.598;7.668;2022-07-23T03:00:42;101115.16;;;22.98;51.68
29383;BME280;16365;51.598;7.668;2022-07-23T03:03:09;101111.53;;;22.94;51.63
29383;BME280;16365;51.598;7.668;2022-07-23T03:05:36;101115.16;;;22.91;51.77
29383;BME280;16365;51.598;7.668;2022-07-23T03:08:02;101114.75;;;22.89;51.78
29383;BME280;16365;51.598;7.668;2022-07-23T03:10:29;101116.31;;;22.87;51.57
29383;BME280;16365;51.598;7.668;2022-07-23T03:12:55;101119.16;;;22.87;51.39
29383;BME280;16365;51.598;7.668;2022-07-23T03:15:22;101119.97;;;22.83;51.72
29383;BME280;16365;51.598;7.668;2022-07-23T03:17:48;101120.78;;;22.80;51.67
29383;BME280;16365;51.598;7.668;2022-07-23T03:20:15;101114.31;;;22.80;51.46
29383;BME280;16365;51.598;7.668;2022-07-23T03:22:42;101107.03;;;22.75;51.64
29383;BME280;16365;51.598;7.668;2022-07-23T03:25:08;101110.66;;;22.72;51.68
29383;BME280;16365;51.598;7.668;2022-07-23T03:27:35;101110.25;;;22.70;51.66
29383;BME280;16365;51.598;7.668;2022-07-23T03:30:02;101114.72;;;22.68;51.92
29383;BME280;16365;51.598;7.668;2022-07-23T03:32:29;101114.28;;;22.66;52.00
29383;BME280;16365;51.598;7.668;2022-07-23T03:34:55;101113.09;;;22.63;52.05
29383;BME280;16365;51.598;7.668;2022-07-23T03:37:23;101116.28;;;22.62;51.98
29383;BME280;16365;51.598;7.668;2022-07-23T03:39:50;101110.25;;;22.60;51.88
29383;BME280;16365;51.598;7.668;2022-07-23T03:42:16;101116.31;;;22.58;51.90
29383;BME280;16365;51.598;7.668;2022-07-23T03:44:43;101113.47;;;22.54;51.98
29383;BME280;16365;51.598;7.668;2022-07-23T03:47:09;101113.03;;;22.52;51.85
29383;BME280;16365;51.598;7.668;2022-07-23T03:49:36;101109.00;;;22.50;52.07
29383;BME280;16365;51.598;7.668;2022-07-23T03:52:03;101107.41;;;22.49;52.09
29383;BME280;16365;51.598;7.668;2022-07-23T03:54:29;101095.69;;;22.47;51.91
29383;BME280;16365;51.598;7.668;2022-07-23T03:56:56;101102.16;;;22.44;52.14
29383;BME280;16365;51.598;7.668;2022-07-23T03:59:22;101107.38;;;22.42;51.88
29383;BME280;16365;51.598;7.668;2022-07-23T04:01:50;101106.16;;;22.39;52.25
29383;BME280;16365;51.598;7.668;2022-07-23T04:04:17;101114.66;;;22.39;52.53
29383;BME280;16365;51.598;7.668;2022-07-23T04:06:43;101114.22;;;22.37;52.41
29383;BME280;16365;51.598;7.668;2022-07-23T04:09:10;101112.19;;;22.38;52.55
29383;BME280;16365;51.598;7.668;2022-07-23T04:11:36;101110.59;;;22.37;52.63
29383;BME280;16365;51.598;7.668;2022-07-23T04:14:03;101111.41;;;22.37;52.46
29383;BME280;16365;51.598;7.668;2022-07-23T04:16:30;101120.66;;;22.38;52.47
29383;BME280;16365;51.598;7.668;2022-07-23T04:18:57;101123.13;;;22.39;52.67
29383;BME280;16365;51.598;7.668;2022-07-23T04:21:25;101131.19;;;22.41;52.32
29383;BME280;16365;51.598;7.668;2022-07-23T04:23:51;101122.72;;;22.41;52.28
29383;BME280;16365;51.598;7.668;2022-07-23T04:26:18;101126.34;;;22.41;52.66
29383;BME280;16365;51.598;7.668;2022-07-23T04:28:44;101124.31;;;22.42;52.51
29383;BME280;16365;51.598;7.668;2022-07-23T04:31:11;101127.94;;;22.42;52.63
29383;BME280;16365;51.598;7.668;2022-07-23T04:33:38;101120.28;;;22.43;52.83
29383;BME280;16365;51.598;7.668;2022-07-23T04:36:04;101121.94;;;22.44;52.33
29383;BME280;16365;51.598;7.668;2022-07-23T04:38:31;101127.16;;;22.45;52.68
29383;BME280;16365;51.598;7.668;2022-07-23T04:40:59;101129.59;;;22.47;52.60
29383;BME280;16365;51.598;7.668;2022-07-23T04:43:25;101134.03;;;22.48;52.51
29383;BME280;16365;51.598;7.668;2022-07-23T04:45:52;101130.00;;;22.49;52.67
29383;BME280;16365;51.598;7.668;2022-07-23T04:48:18;101141.72;;;22.51;52.48
29383;BME280;16365;51.598;7.668;2022-07-23T04:50:47;101136.44;;;22.53;52.37
29383;BME280;16365;51.598;7.668;2022-07-23T04:53:13;101132.81;;;22.52;52.24
29383;BME280;16365;51.598;7.668;2022-07-23T04:55:40;101138.47;;;22.52;52.30
29383;BME280;16365;51.598;7.668;2022-07-23T04:58:06;101144.13;;;22.52;52.36
29383;BME280;16365;51.598;7.668;2022-07-23T05:00:33;101138.47;;;22.52;52.67
29383;BME280;16365;51.598;7.668;2022-07-23T05:02:59;101145.78;;;22.53;52.32
29383;BME280;16365;51.598;7.668;2022-07-23T05:05:26;101149.41;;;22.54;52.38
29383;BME280;16365;51.598;7.668;2022-07-23T05:07:53;101151.81;;;22.55;52.41
29383;BME280;16365;51.598;7.668;2022-07-23T05:10:19;101151.81;;;22.55;52.40
29383;BME280;16365;51.598;7.668;2022-07-23T05:12:46;101157.06;;;22.57;52.27
29383;BME280;16365;51.598;7.668;2022-07-23T05:15:12;101158.69;;;22.58;52.17
29383;BME280;16365;51.598;7.668;2022-07-23T05:17:39;101155.47;;;22.60;52.62
29383;BME280;16365;51.598;7.668;2022-07-23T05:20:06;101164.34;;;22.62;52.46
29383;BME280;16365;51.598;7.668;2022-07-23T05:22:32;101162.34;;;22.66;52.57
29383;BME280;16365;51.598;7.668;2022-07-23T05:24:59;101161.56;;;22.69;52.57
29383;BME280;16365;51.598;7.668;2022-07-23T05:27:26;101171.22;;;22.71;52.56
29383;BME280;16365;51.598;7.668;2022-07-23T05:29:52;101174.06;;;22.75;52.38
29383;BME280;16365;51.598;7.668;2022-07-23T05:32:19;101168.44;;;22.78;52.66
29383;BME280;16365;51.598;7.668;2022-07-23T05:34:45;101167.25;;;22.83;52.74
29383;BME280;16365;51.598;7.668;2022-07-23T05:37:12;101170.03;;;22.87;52.44
29383;BME280;16365;51.598;7.668;2022-07-23T05:39:38;101173.72;;;22.91;52.38
29383;BME280;16365;51.598;7.668;2022-07-23T05:42:05;101168.09;;;22.94;52.42
29383;BME280;16365;51.598;7.668;2022-07-23T05:44:32;101172.94;;;22.97;52.10
29383;BME280;16365;51.598;7.668;2022-07-23T05:47:01;101178.19;;;22.99;52.09
29383;BME280;16365;51.598;7.668;2022-07-23T05:49:27;101185.88;;;23.02;52.40
29383;BME280;16365;51.598;7.668;2022-07-23T05:51:54;101180.22;;;23.05;52.58
29383;BME280;16365;51.598;7.668;2022-07-23T05:54:20;101171.31;;;23.11;52.76
29383;BME280;16365;51.598;7.668;2022-07-23T05:56:47;101173.75;;;23.16;52.34
29383;BME280;16365;51.598;7.668;2022-07-23T05:59:14;101181.03;;;23.20;52.35
29383;BME280;16365;51.598;7.668;2022-07-23T06:01:41;101186.28;;;23.25;52.08
29383;BME280;16365;51.598;7.668;2022-07-23T06:04:08;101185.06;;;23.30;51.80
29383;BME280;16365;51.598;7.668;2022-07-23T06:06:35;101183.84;;;23.34;51.72
29383;BME280;16365;51.598;7.668;2022-07-23T06:09:02;101189.53;;;23.38;51.46
29383;BME280;16365;51.598;7.668;2022-07-23T06:11:29;101188.31;;;23.43;51.65
29383;BME280;16365;51.598;7.668;2022-07-23T06:13:56;101190.34;;;23.46;51.54
29383;BME280;16365;51.598;7.668;2022-07-23T06:16:23;101194.78;;;23.50;51.57
29383;BME280;16365;51.598;7.668;2022-07-23T06:18:49;101189.91;;;23.54;51.75
29383;BME280;16365;51.598;7.668;2022-07-23T06:21:16;101191.53;;;23.59;51.48
29383;BME280;16365;51.598;7.668;2022-07-23T06:24:02;101191.97;;;23.65;51.38
29383;BME280;16365;51.598;7.668;2022-07-23T06:26:29;101194.78;;;23.68;51.26
29383;BME280;16365;51.598;7.668;2022-07-23T06:28:55;101195.59;;;23.72;51.48
29383;BME280;16365;51.598;7.668;2022-07-23T06:31:22;101208.97;;;23.79;51.54
29383;BME280;16365;51.598;7.668;2022-07-23T06:33:49;101211.38;;;23.84;51.21
29383;BME280;16365;51.598;7.668;2022-07-23T06:36:16;101206.09;;;23.86;51.31
29383;BME280;16365;51.598;7.668;2022-07-23T06:38:42;101206.50;;;23.92;51.39
29383;BME280;16365;51.598;7.668;2022-07-23T06:41:10;101207.28;;;23.99;51.14
29383;BME280;16365;51.598;7.668;2022-07-23T06:43:36;101212.94;;;24.06;50.96
29383;BME280;16365;51.598;7.668;2022-07-23T06:46:03;101209.66;;;24.11;50.77
29383;BME280;16365;51.598;7.668;2022-07-23T06:48:30;101204.00;;;24.19;50.97
29383;BME280;16365;51.598;7.668;2022-07-23T06:50:57;101208.81;;;24.25;51.02
29383;BME280;16365;51.598;7.668;2022-07-23T06:53:24;101211.22;;;24.34;50.61
29383;BME280;16365;51.598;7.668;2022-07-23T06:55:50;101210.03;;;24.42;50.32
29383;BME280;16365;51.598;7.668;2022-07-23T06:58:17;101204.72;;;24.48;50.18
29383;BME280;16365;51.598;7.668;2022-07-23T07:00:45;101208.75;;;24.54;50.01
29383;BME280;16365;51.598;7.668;2022-07-23T07:03:12;101222.91;;;24.57;49.85
29383;BME280;16365;51.598;7.668;2022-07-23T07:05:39;101215.19;;;24.61;49.83
29383;BME280;16365;51.598;7.668;2022-07-23T07:08:08;101219.22;;;24.64;49.57
29383;BME280;16365;51.598;7.668;2022-07-23T07:10:35;101217.59;;;24.67;49.89
29383;BME280;16365;51.598;7.668;2022-07-23T07:13:01;101212.69;;;24.71;50.33
29383;BME280;16365;51.598;7.668;2022-07-23T07:15:28;101213.47;;;24.78;50.31
29383;BME280;16365;51.598;7.668;2022-07-23T07:17:54;101223.56;;;24.86;49.94
29383;BME280;16365;51.598;7.668;2022-07-23T07:20:21;101212.16;;;24.97;50.08
29383;BME280;16365;51.598;7.668;2022-07-23T07:22:48;101220.22;;;25.06;49.68
29383;BME280;16365;51.598;7.668;2022-07-23T07:25:15;101218.94;;;25.14;49.70
29383;BME280;16365;51.598;7.668;2022-07-23T07:27:41;101219.34;;;25.20;49.17
29383;BME280;16365;51.598;7.668;2022-07-23T07:30:10;101225.78;;;25.24;49.36
29383;BME280;16365;51.598;7.668;2022-07-23T07:32:37;101226.97;;;25.26;48.60
29383;BME280;16365;51.598;7.668;2022-07-23T07:35:21;101222.91;;;25.27;48.67
29383;BME280;16365;51.598;7.668;2022-07-23T07:37:48;101222.91;;;25.27;48.89
29383;BME280;16365;51.598;7.668;2022-07-23T07:40:14;101235.47;;;25.30;49.56
29383;BME280;16365;51.598;7.668;2022-07-23T07:42:47;101236.66;;;25.36;49.30
29383;BME280;16365;51.598;7.668;2022-07-23T07:45:14;101244.22;;;25.53;49.98
29383;BME280;16365;51.598;7.668;2022-07-23T07:47:41;101235.91;;;25.77;49.94
29383;BME280;16365;51.598;7.668;2022-07-23T07:50:09;101241.78;;;26.00;49.68
29383;BME280;16365;51.598;7.668;2022-07-23T07:52:37;101245.91;;;26.30;49.31
29383;BME280;16365;51.598;7.668;2022-07-23T07:55:18;101250.41;;;26.65;49.30
29383;BME280;16365;51.598;7.668;2022-07-23T07:57:55;101249.06;;;27.04;49.24
29383;BME280;16365;51.598;7.668;2022-07-23T08:00:22;101245.59;;;27.47;49.24
29383;BME280;16365;51.598;7.668;2022-07-23T08:02:51;101250.50;;;27.93;47.22
29383;BME280;16365;51.598;7.668;2022-07-23T08:05:29;101251.34;;;28.37;45.90
29383;BME280;16365;51.598;7.668;2022-07-23T08:07:57;101245.69;;;28.73;44.72
29383;BME280;16365;51.598;7.668;2022-07-23T08:10:26;101247.72;;;28.92;44.34
29383;BME280;16365;51.598;7.668;2022-07-23T08:12:54;101249.56;;;29.03;43.29
29383;BME280;16365;51.598;7.668;2022-07-23T08:15:24;101248.22;;;29.07;42.52
29383;BME280;16365;51.598;7.668;2022-07-23T08:17:51;101246.16;;;29.08;42.19
29383;BME280;16365;51.598;7.668;2022-07-23T08:20:19;101258.56;;;29.01;42.05
29383;BME280;16365;51.598;7.668;2022-07-23T08:22:59;101259.06;;;28.96;41.09
29383;BME280;16365;51.598;7.668;2022-07-23T08:25:30;101256.69;;;28.91;40.70
29383;BME280;16365;51.598;7.668;2022-07-23T08:27:58;101257.69;;;28.84;41.39
29383;BME280;16365;51.598;7.668;2022-07-23T08:30:26;101259.81;;;28.80;41.26
29383;BME280;16365;51.598;7.668;2022-07-23T08:32:54;101266.81;;;28.76;41.78
29383;BME280;16365;51.598;7.668;2022-07-23T08:35:27;101276.72;;;28.71;41.29
29383;BME280;16365;51.598;7.668;2022-07-23T08:37:54;101283.84;;;28.63;40.96
29383;BME280;16365;51.598;7.668;2022-07-23T08:40:22;101283.22;;;28.52;40.40
29383;BME280;16365;51.598;7.668;2022-07-23T08:42:50;101280.59;;;28.41;41.15
29383;BME280;16365;51.598;7.668;2022-07-23T08:45:18;101280.25;;;28.39;41.70
29383;BME280;16365;51.598;7.668;2022-07-23T08:47:53;101279.63;;;28.48;41.68
29383;BME280;16365;51.598;7.668;2022-07-23T08:50:21;101275.91;;;28.71;42.41
29383;BME280;16365;51.598;7.668;2022-07-23T08:52:50;101278.56;;;29.01;42.48
29383;BME280;16365;51.598;7.668;2022-07-23T08:55:18;101274.06;;;29.36;41.54
29383;BME280;16365;51.598;7.668;2022-07-23T08:57:46;101269.19;;;29.69;42.88
29383;BME280;16365;51.598;7.668;2022-07-23T09:00:14;101270.06;;;29.99;39.31
29383;BME280;16365;51.598;7.668;2022-07-23T09:02:42;101283.81;;;30.04;38.65
29383;BME280;16365;51.598;7.668;2022-07-23T09:05:10;101284.78;;;29.98;38.24
29383;BME280;16365;51.598;7.668;2022-07-23T09:16:26;101275.47;;;29.44;37.88
29383;BME280;16365;51.598;7.668;2022-07-23T09:19:03;101282.63;;;29.36;38.07
29383;BME280;16365;51.598;7.668;2022-07-23T09:21:32;101270.75;;;29.38;38.56
29383;BME280;16365;51.598;7.668;2022-07-23T09:26:33;101271.28;;;29.49;38.57
29383;BME280;16365;51.598;7.668;2022-07-23T09:29:19;101266.69;;;29.55;38.12
29383;BME280;16365;51.598;7.668;2022-07-23T09:31:55;101274.28;;;29.62;37.66
29383;BME280;16365;51.598;7.668;2022-07-23T09:34:30;101277.59;;;29.60;37.03
29383;BME280;16365;51.598;7.668;2022-07-23T09:37:18;101275.06;;;29.46;36.65
29383;BME280;16365;51.598;7.668;2022-07-23T09:39:47;101277.25;;;29.38;37.21
29383;BME280;16365;51.598;7.668;2022-07-23T09:42:23;101282.00;;;29.29;36.94
29383;BME280;16365;51.598;7.668;2022-07-23T09:44:51;101277.72;;;29.21;36.46
29383;BME280;16365;51.598;7.668;2022-07-23T09:47:19;101282.69;;;29.16;36.68
29383;BME280;16365;51.598;7.668;2022-07-23T09:50:02;101286.16;;;29.08;36.15
29383;BME280;16365;51.598;7.668;2022-07-23T09:52:33;101282.03;;;29.09;36.69
29383;BME280;16365;51.598;7.668;2022-07-23T09:55:04;101290.16;;;29.10;37.22
29383;BME280;16365;51.598;7.668;2022-07-23T09:57:32;101281.97;;;29.12;36.74
29383;BME280;16365;51.598;7.668;2022-07-23T10:00:00;101290.81;;;29.18;36.61
29383;BME280;16365;51.598;7.668;2022-07-23T10:02:31;101289.13;;;29.21;35.76
29383;BME280;16365;51.598;7.668;2022-07-23T10:04:59;101292.25;;;29.26;36.68
29383;BME280;16365;51.598;7.668;2022-07-23T10:07:27;101291.34;;;29.29;36.28
29383;BME280;16365;51.598;7.668;2022-07-23T10:09:58;101289.31;;;29.30;36.71
29383;BME280;16365;51.598;7.668;2022-07-23T10:12:26;101288.78;;;29.35;36.18
29383;BME280;16365;51.598;7.668;2022-07-23T10:14:57;101284.31;;;29.34;35.28
29383;BME280;16365;51.598;7.668;2022-07-23T10:17:24;101279.50;;;29.31;35.60
29383;BME280;16365;51.598;7.668;2022-07-23T10:19:50;101286.09;;;29.28;36.00
29383;BME280;16365;51.598;7.668;2022-07-23T10:22:24;101274.41;;;29.22;35.53
29383;BME280;16365;51.598;7.668;2022-07-23T10:30:09;101276.06;;;29.19;35.58
29383;BME280;16365;51.598;7.668;2022-07-23T10:32:40;101273.22;;;29.19;35.11
29383;BME280;16365;51.598;7.668;2022-07-23T10:35:13;101272.41;;;29.19;35.49
29383;BME280;16365;51.598;7.668;2022-07-23T10:37:51;101274.53;;;29.15;35.21
29383;BME280;16365;51.598;7.668;2022-07-23T10:40:21;101271.63;;;29.18;35.56
29383;BME280;16365;51.598;7.668;2022-07-23T10:42:52;101265.84;;;29.22;36.98
29383;BME280;16365;51.598;7.668;2022-07-23T10:48:15;101273.78;;;29.31;35.77
29383;BME280;16365;51.598;7.668;2022-07-23T10:50:43;101273.25;;;29.36;35.10
29383;BME280;16365;51.598;7.668;2022-07-23T10:53:16;101272.47;;;29.35;34.28
29383;BME280;16365;51.598;7.668;2022-07-23T10:55:49;101274.94;;;29.33;33.84
29383;BME280;16365;51.598;7.668;2022-07-23T10:58:19;101274.13;;;29.33;34.24
29383;BME280;16365;51.598;7.668;2022-07-23T11:00:47;101266.75;;;29.35;34.61
29383;BME280;16365;51.598;7.668;2022-07-23T11:03:33;101270.84;;;29.34;34.61
29383;BME280;16365;51.598;7.668;2022-07-23T11:06:03;101271.94;;;29.40;34.54
29383;BME280;16365;51.598;7.668;2022-07-23T11:08:30;101260.84;;;29.42;34.54
29383;BME280;16365;51.598;7.668;2022-07-23T11:16:13;101278.78;;;29.43;34.09
29383;BME280;16365;51.598;7.668;2022-07-23T11:32:21;101268.97;;;29.44;33.96
29383;BME280;16365;51.598;7.668;2022-07-23T11:34:50;101254.25;;;29.45;33.89
29383;BME280;16365;51.598;7.668;2022-07-23T11:37:39;101269.16;;;29.37;33.61
29383;BME280;16365;51.598;7.668;2022-07-23T11:40:12;101267.09;;;29.37;33.70
29383;BME280;16365;51.598;7.668;2022-07-23T11:42:40;101268.34;;;29.36;34.14
29383;BME280;16365;51.598;7.668;2022-07-23T11:45:16;101250.41;;;29.36;34.35
29383;BME280;16365;51.598;7.668;2022-07-23T11:47:43;101254.41;;;29.38;33.99
29383;BME280;16365;51.598;7.668;2022-07-23T11:50:10;101254.41;;;29.38;34.02
29383;BME280;16365;51.598;7.668;2022-07-23T11:52:36;101256.38;;;29.41;34.06
29383;BME280;16365;51.598;7.668;2022-07-23T11:55:08;101251.13;;;29.40;33.43
29383;BME280;16365;51.598;7.668;2022-07-23T11:57:40;101251.13;;;29.40;33.70
29383;BME280;16365;51.598;7.668;2022-07-23T12:00:16;101249.50;;;29.39;33.82
29383;BME280;16365;51.598;7.668;2022-07-23T12:02:47;101256.72;;;29.43;33.38
29383;BME280;16365;51.598;7.668;2022-07-23T12:05:15;101253.78;;;29.47;33.63
29383;BME280;16365;51.598;7.668;2022-07-23T12:07:43;101256.91;;;29.53;34.92
29383;BME280;16365;51.598;7.668;2022-07-23T12:10:14;101254.34;;;29.58;33.63
29383;BME280;16365;51.598;7.668;2022-07-23T12:12:45;101256.00;;;29.59;32.94
29383;BME280;16365;51.598;7.668;2022-07-23T12:15:13;101247.75;;;29.61;33.01
29383;BME280;16365;51.598;7.668;2022-07-23T12:17:43;101252.22;;;29.62;32.90
29383;BME280;16365;51.598;7.668;2022-07-23T12:20:20;101241.97;;;29.65;32.14
29383;BME280;16365;51.598;7.668;2022-07-23T12:22:51;101252.47;;;29.68;32.41
29383;BME280;16365;51.598;7.668;2022-07-23T12:25:20;101252.84;;;29.70;31.88
29383;BME280;16365;51.598;7.668;2022-07-23T12:28:00;101250.88;;;29.67;32.35
29383;BME280;16365;51.598;7.668;2022-07-23T12:30:31;101249.19;;;29.69;32.30
29383;BME280;16365;51.598;7.668;2022-07-23T12:33:01;101251.94;;;29.73;32.60
29383;BME280;16365;51.598;7.668;2022-07-23T12:35:34;101239.69;;;29.73;32.57
29383;BME280;16365;51.598;7.668;2022-07-23T12:38:04;101248.53;;;29.78;32.62
29383;BME280;16365;51.598;7.668;2022-07-23T12:40:49;101250.97;;;29.80;32.25
29383;BME280;16365;51.598;7.668;2022-07-23T12:43:25;101245.97;;;29.84;32.12
29383;BME280;16365;51.598;7.668;2022-07-23T12:51:06;101250.84;;;30.00;32.42
29383;BME280;16365;51.598;7.668;2022-07-23T12:56:32;101251.56;;;30.04;32.18
29383;BME280;16365;51.598;7.668;2022-07-23T12:59:07;101249.75;;;30.10;31.84
29383;BME280;16365;51.598;7.668;2022-07-23T13:01:38;101250.03;;;30.15;31.69
29383;BME280;16365;51.598;7.668;2022-07-23T13:06:59;101256.44;;;30.19;31.68
29383;BME280;16365;51.598;7.668;2022-07-23T13:09:32;101253.94;;;30.21;31.53
29383;BME280;16365;51.598;7.668;2022-07-23T13:12:07;101254.31;;;30.24;31.66
29383;BME280;16365;51.598;7.668;2022-07-23T13:14:37;101255.09;;;30.24;30.99
29383;BME280;16365;51.598;7.668;2022-07-23T13:17:05;101259.56;;;30.25;31.26
29383;BME280;16365;51.598;7.668;2022-07-23T13:19:32;101259.94;;;30.27;31.90
29383;BME280;16365;51.598;7.668;2022-07-23T13:22:00;101259.94;;;30.27;31.64
29383;BME280;16365;51.598;7.668;2022-07-23T13:24:47;101263.59;;;30.28;31.53
29383;BME280;16365;51.598;7.668;2022-07-23T13:27:13;101248.91;;;30.26;31.31
29383;BME280;16365;51.598;7.668;2022-07-23T13:29:42;101260.38;;;30.26;31.65
29383;BME280;16365;51.598;7.668;2022-07-23T13:32:11;101266.00;;;30.29;32.84
29383;BME280;16365;51.598;7.668;2022-07-23T13:34:39;101251.84;;;30.38;33.08
29383;BME280;16365;51.598;7.668;2022-07-23T13:37:07;101255.28;;;30.46;32.07
29383;BME280;16365;51.598;7.668;2022-07-23T13:39:33;101254.84;;;30.48;31.69
29383;BME280;16365;51.598;7.668;2022-07-23T13:42:20;101253.13;;;30.50;31.22
29383;BME280;16365;51.598;7.668;2022-07-23T13:44:49;101253.91;;;30.51;31.13
29383;BME280;16365;51.598;7.668;2022-07-23T13:47:15;101248.56;;;30.53;31.69